Time;durP1;ratioP1;P1;durP2;ratioP2;P2;SDS_P1;SDS_P2;PMS_P1;PMS_P2;Temp;Humidity;BMP_temperature;BMP_pressure;BME280_temperature;BME280_humidity;BME280_pressure;Samples;Min_cycle;Max_cycle;Signal;HPM_P1;HPM_P2
2022/08/22 00:02:15;;;;;;;1.70;0.50;;;24.30;68.20;;;;;;5056113;28;20090;-77
2022/08/22 00:04:56;;;;;;;1.73;0.55;;;24.30;68.20;;;;;;5043590;28;20033;-78
2022/08/22 00:07:47;;;;;;;2.78;0.55;;;24.40;68.20;;;;;;5056129;28;20056;-78
2022/08/22 00:10:18;;;;;;;3.20;0.45;;;24.30;68.10;;;;;;5055646;28;20025;-78
2022/08/22 00:12:57;;;;;;;2.72;0.68;;;24.30;68.20;;;;;;5055875;28;20028;-78
2022/08/22 00:15:29;;;;;;;3.00;0.70;;;24.20;68.40;;;;;;5055987;28;20388;-77
2022/08/22 00:18:23;;;;;;;4.43;0.75;;;24.20;68.60;;;;;;5055851;28;20032;-78
2022/08/22 00:21:11;;;;;;;2.78;0.60;;;24.10;69.80;;;;;;5045628;28;20041;-77
2022/08/22 00:23:57;;;;;;;2.90;0.50;;;23.90;69.40;;;;;;5054312;28;20123;-77
2022/08/22 00:26:41;;;;;;;3.17;0.60;;;23.90;69.40;;;;;;5054937;28;20041;-78
2022/08/22 00:29:20;;;;;;;1.90;0.40;;;24.00;69.50;;;;;;5055663;28;20013;-77
2022/08/22 00:32:14;;;;;;;2.40;0.50;;;24.00;69.30;;;;;;5055254;28;20391;-77
2022/08/22 00:34:52;;;;;;;3.30;0.47;;;24.10;69.20;;;;;;5054976;28;20032;-77
2022/08/22 00:37:27;;;;;;;2.40;0.40;;;24.10;69.10;;;;;;5055381;28;20380;-77
2022/08/22 00:40:31;;;;;;;2.08;0.43;;;24.10;69.10;;;;;;5055103;28;20025;-78
2022/08/22 00:43:03;;;;;;;2.97;0.68;;;24.10;69.10;;;;;;5055017;28;20032;-77
2022/08/22 00:45:53;;;;;;;1.75;0.35;;;24.10;69.00;;;;;;5055043;28;20418;-77
2022/08/22 00:48:22;;;;;;;3.25;0.52;;;24.20;69.10;;;;;;5055175;28;20032;-78
2022/08/22 00:51:06;;;;;;;2.38;0.47;;;24.10;69.10;;;;;;5055207;28;20017;-78
2022/08/22 00:53:54;;;;;;;2.40;0.70;;;24.10;69.20;;;;;;5054941;28;20468;-78
2022/08/22 00:56:41;;;;;;;2.60;0.40;;;24.10;69.20;;;;;;5054785;28;20025;-78
2022/08/22 00:59:30;;;;;;;4.05;0.60;;;24.10;69.20;;;;;;5054716;28;20052;-77
2022/08/22 01:02:02;;;;;;;3.22;0.70;;;24.20;69.30;;;;;;5055069;28;20033;-77
2022/08/22 01:04:47;;;;;;;1.60;0.40;;;24.10;69.20;;;;;;5054709;28;20032;-77
2022/08/22 01:07:25;;;;;;;1.95;0.50;;;24.10;70.10;;;;;;5054574;28;20480;-77
2022/08/22 01:10:13;;;;;;;1.90;0.50;;;24.10;69.50;;;;;;5054924;28;20354;-77
2022/08/22 01:13:10;;;;;;;3.20;0.70;;;24.10;69.60;;;;;;5054824;28;20045;-78
2022/08/22 01:15:36;;;;;;;2.17;0.70;;;24.00;69.70;;;;;;5054494;28;20029;-77
2022/08/22 01:18:17;;;;;;;2.70;0.63;;;24.00;69.70;;;;;;5054692;28;20033;-78
2022/08/22 01:21:31;;;;;;;1.05;0.40;;;24.00;69.80;;;;;;5054444;28;20039;-77
2022/08/22 01:25:16;;;;;;;5.40;0.98;;;24.00;69.90;;;;;;5034550;28;20033;-77
2022/08/22 01:27:48;;;;;;;2.28;0.55;;;23.80;71.00;;;;;;5054022;28;20025;-78
2022/08/22 01:30:27;;;;;;;1.95;0.60;;;23.80;70.40;;;;;;5054432;28;20028;-78
2022/08/22 01:33:27;;;;;;;2.05;0.40;;;23.70;70.70;;;;;;5054391;28;20025;-78
2022/08/22 01:36:14;;;;;;;1.85;0.70;;;23.70;70.70;;;;;;5053875;28;20391;-78
2022/08/22 01:39:14;;;;;;;4.38;0.65;;;23.80;70.80;;;;;;5054319;28;20438;-78
2022/08/22 01:41:52;;;;;;;2.17;0.47;;;23.80;70.80;;;;;;5054207;28;20029;-77
2022/08/22 01:44:29;;;;;;;3.13;0.82;;;23.80;71.00;;;;;;5054133;28;20017;-77
2022/08/22 01:47:04;;;;;;;6.20;1.13;;;23.70;71.00;;;;;;5053991;28;20032;-78
2022/08/22 01:49:33;;;;;;;5.20;0.65;;;23.60;71.50;;;;;;5053838;28;20052;-77
2022/08/22 01:52:19;;;;;;;2.58;0.50;;;23.60;71.50;;;;;;5054104;28;20372;-77
2022/08/22 01:54:57;;;;;;;3.90;0.70;;;23.50;71.70;;;;;;5053882;28;20029;-77
2022/08/22 01:57:25;;;;;;;1.88;0.40;;;23.40;72.60;;;;;;5053433;28;20028;-77
2022/08/22 02:00:00;;;;;;;3.05;0.70;;;23.20;72.80;;;;;;5053584;28;20036;-77
2022/08/22 02:03:02;;;;;;;3.17;0.88;;;23.20;73.00;;;;;;5053998;28;20036;-77
2022/08/22 02:05:37;;;;;;;3.60;0.70;;;23.10;73.30;;;;;;5044885;28;20040;-77
2022/08/22 02:08:24;;;;;;;5.93;0.90;;;23.10;73.50;;;;;;5053831;28;20025;-77
2022/08/22 02:11:09;;;;;;;4.57;1.10;;;23.10;73.80;;;;;;5053622;28;20025;-77
2022/08/22 02:13:43;;;;;;;2.25;0.50;;;23.00;73.70;;;;;;5053527;28;20102;-77
2022/08/22 02:16:18;;;;;;;5.70;0.80;;;23.10;73.50;;;;;;5053441;28;20028;-77
2022/08/22 02:19:09;;;;;;;2.42;0.60;;;23.20;73.30;;;;;;5053378;28;20032;-78
2022/08/22 02:22:03;;;;;;;5.55;0.93;;;23.30;73.10;;;;;;5053701;28;20040;-77
2022/08/22 02:25:15;;;;;;;4.60;1.00;;;23.20;73.40;;;;;;5053384;28;20127;-77
2022/08/22 02:28:09;;;;;;;4.80;0.63;;;23.10;73.70;;;;;;5048367;28;20029;-77
2022/08/22 02:30:44;;;;;;;4.07;0.82;;;23.00;73.90;;;;;;5053141;28;20572;-77
2022/08/22 02:33:22;;;;;;;6.45;1.05;;;23.00;73.80;;;;;;5053142;28;20104;-77
2022/08/22 02:35:57;;;;;;;7.55;1.70;;;23.10;73.80;;;;;;5053383;28;20025;-77
2022/08/22 02:38:39;;;;;;;4.30;0.70;;;23.10;74.00;;;;;;5053274;28;20075;-77
2022/08/22 02:41:11;;;;;;;3.20;0.77;;;23.00;74.10;;;;;;5053367;28;20033;-77
2022/08/22 02:44:01;;;;;;;3.22;0.75;;;23.00;74.30;;;;;;5053104;28;20033;-77
2022/08/22 02:46:48;;;;;;;3.05;0.60;;;23.00;74.10;;;;;;5056416;28;20035;-77
2022/08/22 02:49:42;;;;;;;6.25;1.00;;;23.00;74.20;;;;;;5059774;28;20063;-77
2022/08/22 02:52:14;;;;;;;2.38;0.40;;;22.90;74.50;;;;;;5059702;28;20535;-77
2022/08/22 02:55:01;;;;;;;;;;;22.90;74.40;;;;;;5060321;28;20029;-77
2022/08/22 02:57:33;;;;;;;3.58;0.70;;;22.90;74.60;;;;;;5059633;28;19909;-77
2022/08/22 03:00:14;;;;;;;3.45;0.80;;;22.90;74.40;;;;;;5059554;28;20064;-77
2022/08/22 03:02:57;;;;;;;3.78;0.80;;;23.00;74.30;;;;;;5059875;28;20431;-77
2022/08/22 03:05:35;;;;;;;3.88;0.80;;;23.00;74.30;;;;;;5059605;28;20106;-77
2022/08/22 03:08:22;;;;;;;2.42;0.50;;;23.00;74.50;;;;;;5059401;28;20354;-77
2022/08/22 03:11:04;;;;;;;4.40;1.08;;;23.00;74.40;;;;;;5059763;28;20032;-77
2022/08/22 03:13:57;;;;;;;3.78;0.65;;;23.00;74.60;;;;;;5059444;28;20086;-78
2022/08/22 03:16:39;;;;;;;5.55;1.00;;;23.00;74.60;;;;;;5059423;28;20104;-77
2022/08/22 03:19:13;;;;;;;3.95;0.82;;;22.70;75.40;;;;;;5059802;28;20044;-78
2022/08/22 03:22:01;;;;;;;6.88;0.95;;;22.50;75.90;;;;;;5059766;28;20044;-78
2022/08/22 03:24:49;;;;;;;3.78;1.10;;;22.60;76.30;;;;;;5059245;28;20048;-77
2022/08/22 03:27:27;;;;;;;3.75;1.05;;;22.60;75.90;;;;;;5059454;28;20029;-77
2022/08/22 03:30:01;;;;;;;3.72;1.00;;;22.60;76.00;;;;;;5059820;28;20422;-77
2022/08/22 03:32:54;;;;;;;7.07;1.65;;;22.60;76.20;;;;;;5059662;28;20094;-77
2022/08/22 03:35:35;;;;;;;5.22;0.73;;;22.40;76.80;;;;;;5059413;28;20099;-77
2022/08/22 03:38:16;;;;;;;2.88;0.98;;;22.30;77.30;;;;;;5059572;28;20039;-77
2022/08/22 03:41:15;;;;;;;3.40;0.90;;;22.20;77.30;;;;;;5059024;28;20122;-77
2022/08/22 03:44:11;;;;;;;4.38;0.85;;;22.30;77.30;;;;;;5059527;28;20380;-77
2022/08/22 03:47:18;;;;;;;2.90;0.68;;;22.40;77.10;;;;;;5059571;28;20021;-77
2022/08/22 03:49:58;;;;;;;2.35;0.90;;;22.40;77.00;;;;;;5036756;28;20380;-77
2022/08/22 03:53:13;;;;;;;6.30;0.80;;;22.50;76.80;;;;;;5037137;28;20104;-78
2022/08/22 03:56:09;;;;;;;3.58;0.70;;;22.40;76.90;;;;;;4998799;28;20033;-77
2022/08/22 03:58:43;;;;;;;2.33;0.65;;;22.50;76.80;;;;;;5055303;28;20017;-77
2022/08/22 04:01:18;;;;;;;3.67;0.80;;;22.60;76.50;;;;;;5055860;28;20051;-78
2022/08/22 04:03:53;;;;;;;4.07;0.82;;;22.60;76.40;;;;;;5055729;28;20025;-77
2022/08/22 04:06:43;;;;;;;4.00;0.60;;;22.60;76.30;;;;;;5055808;28;20025;-77
2022/08/22 04:09:21;;;;;;;5.57;1.00;;;22.60;76.40;;;;;;5056034;28;20074;-77
2022/08/22 04:11:59;;;;;;;6.45;1.27;;;22.60;76.70;;;;;;5055841;28;20029;-77
2022/08/22 04:14:27;;;;;;;3.88;1.02;;;22.60;76.70;;;;;;5055752;28;20082;-77
2022/08/22 04:17:10;;;;;;;4.00;0.73;;;22.60;76.60;;;;;;5055563;28;20025;-77
2022/08/22 04:20:06;;;;;;;5.38;1.30;;;22.60;76.60;;;;;;5055720;28;20163;-77
2022/08/22 04:22:51;;;;;;;2.45;0.80;;;22.50;77.10;;;;;;5055812;28;20037;-77
2022/08/22 04:25:24;;;;;;;2.92;0.82;;;22.40;77.20;;;;;;5055144;28;20080;-77
2022/08/22 04:28:19;;;;;;;3.15;0.90;;;22.50;77.00;;;;;;5055589;28;20037;-77
2022/08/22 04:30:51;;;;;;;2.95;0.60;;;22.50;77.10;;;;;;5055721;28;20104;-77
2022/08/22 04:33:29;;;;;;;3.00;0.52;;;22.50;76.90;;;;;;5055099;28;20075;-77
2022/08/22 04:36:25;;;;;;;3.15;0.70;;;22.70;76.70;;;;;;5055591;28;20028;-78
2022/08/22 04:39:08;;;;;;;3.05;0.77;;;22.70;76.40;;;;;;5055189;28;20515;-78
2022/08/22 04:41:49;;;;;;;4.28;1.13;;;22.80;76.10;;;;;;5055088;28;20094;-78
2022/08/22 04:44:35;;;;;;;3.40;0.68;;;22.70;76.40;;;;;;5055159;28;20021;-77
2022/08/22 04:47:04;;;;;;;5.90;1.33;;;22.70;76.60;;;;;;5055398;28;20029;-78
2022/08/22 04:50:08;;;;;;;4.15;1.05;;;22.70;76.50;;;;;;5055061;28;20056;-77
2022/08/22 04:52:34;;;;;;;4.20;0.90;;;22.70;76.40;;;;;;5051497;28;20052;-77
2022/08/22 04:55:10;;;;;;;5.80;1.20;;;22.70;76.50;;;;;;5054926;28;20029;-77
2022/08/22 04:58:09;;;;;;;7.22;1.40;;;22.70;76.90;;;;;;5055183;28;20028;-77
2022/08/22 05:01:06;;;;;;;7.32;1.45;;;22.50;77.00;;;;;;5054625;28;20033;-77
2022/08/22 05:03:44;;;;;;;5.38;0.98;;;22.50;77.30;;;;;;5054857;28;20021;-77
2022/08/22 05:06:14;;;;;;;3.08;1.00;;;22.40;77.70;;;;;;5054481;28;20029;-78
2022/08/22 05:08:41;;;;;;;3.10;0.80;;;22.30;78.20;;;;;;5054583;28;20029;-78
2022/08/22 05:11:10;;;;;;;4.93;1.08;;;22.20;78.10;;;;;;5054798;28;20091;-77
2022/08/22 05:13:45;;;;;;;6.32;1.20;;;22.30;78.00;;;;;;5054771;28;20108;-78
2022/08/22 05:16:18;;;;;;;3.63;0.88;;;22.30;78.20;;;;;;5054481;28;20029;-77
2022/08/22 05:18:49;;;;;;;4.47;0.90;;;22.30;78.20;;;;;;5054127;28;20043;-78
2022/08/22 05:21:19;;;;;;;4.63;1.13;;;22.30;78.20;;;;;;5054080;28;20120;-78
2022/08/22 05:24:10;;;;;;;4.65;1.05;;;22.20;78.30;;;;;;5054350;28;20345;-77
2022/08/22 05:26:45;;;;;;;4.22;0.70;;;22.20;78.30;;;;;;5053790;28;20049;-78
2022/08/22 05:29:14;;;;;;;2.50;0.65;;;22.30;78.10;;;;;;5054266;28;20092;-77
2022/08/22 05:31:48;;;;;;;4.00;0.80;;;22.40;77.90;;;;;;5054247;28;20037;-78
2022/08/22 05:34:21;;;;;;;4.95;1.20;;;22.50;77.60;;;;;;5054400;28;20029;-78
2022/08/22 05:37:04;;;;;;;7.00;1.45;;;22.50;77.60;;;;;;5054399;28;20112;-77
2022/08/22 05:39:32;;;;;;;4.25;1.00;;;22.40;77.60;;;;;;5054136;28;20417;-77
2022/08/22 05:42:01;;;;;;;3.22;0.80;;;22.40;77.80;;;;;;5053963;28;20036;-78
2022/08/22 05:44:31;;;;;;;4.03;1.10;;;22.40;78.40;;;;;;5054007;28;20507;-77
2022/08/22 05:47:18;;;;;;;2.58;0.80;;;22.40;77.70;;;;;;5054212;28;20440;-78
2022/08/22 05:49:53;;;;;;;4.55;0.80;;;22.40;77.60;;;;;;5054045;28;20017;-77
2022/08/22 05:52:43;;;;;;;4.80;1.00;;;22.40;77.50;;;;;;5053874;28;20017;-77
2022/08/22 05:55:24;;;;;;;6.05;1.45;;;22.50;77.40;;;;;;5054093;28;20025;-78
2022/08/22 05:58:12;;;;;;;2.30;0.50;;;22.60;77.30;;;;;;5053599;28;20025;-77
2022/08/22 06:00:43;;;;;;;3.33;0.50;;;22.60;77.00;;;;;;5054031;28;20083;-78
2022/08/22 06:03:28;;;;;;;3.95;0.90;;;22.70;76.80;;;;;;5053545;28;20029;-77
2022/08/22 06:05:58;;;;;;;7.38;1.42;;;22.80;76.80;;;;;;5053561;28;20051;-78
2022/08/22 06:08:39;;;;;;;3.00;0.77;;;22.70;76.60;;;;;;5053405;28;20029;-78
2022/08/22 06:11:21;;;;;;;2.92;0.82;;;22.70;76.50;;;;;;5053648;28;20025;-78
2022/08/22 06:13:56;;;;;;;6.50;1.00;;;22.70;76.50;;;;;;5053670;28;20104;-77
2022/08/22 06:16:24;;;;;;;5.13;0.95;;;22.60;76.50;;;;;;5053544;28;20447;-77
2022/08/22 06:18:51;;;;;;;4.30;0.90;;;22.60;76.70;;;;;;5053535;28;20053;-77
2022/08/22 06:21:36;;;;;;;3.25;0.68;;;22.50;77.70;;;;;;5052723;28;20044;-77
2022/08/22 06:24:07;;;;;;;7.05;1.25;;;22.40;77.60;;;;;;5053121;28;20057;-77
2022/08/22 06:26:41;;;;;;;3.17;0.85;;;22.40;77.60;;;;;;5053344;28;20059;-77
2022/08/22 06:29:08;;;;;;;10.10;1.50;;;22.40;77.70;;;;;;5053322;28;20032;-78
2022/08/22 06:31:55;;;;;;;5.45;1.00;;;22.40;78.50;;;;;;5053241;28;20028;-78
2022/08/22 06:34:30;;;;;;;6.63;1.92;;;22.30;78.00;;;;;;5052918;28;20491;-78
2022/08/22 06:37:00;;;;;;;7.00;1.70;;;22.30;78.20;;;;;;5052811;28;20483;-78
2022/08/22 06:39:31;;;;;;;5.43;1.45;;;22.30;78.40;;;;;;5052778;28;20039;-78
2022/08/22 06:42:13;;;;;;;3.60;0.88;;;22.20;78.30;;;;;;5053356;28;20043;-78
2022/08/22 06:44:51;;;;;;;10.43;1.70;;;22.20;78.40;;;;;;5052773;28;20025;-78
2022/08/22 06:47:23;;;;;;;4.95;1.05;;;22.30;78.10;;;;;;5053357;28;20146;-78
2022/08/22 06:49:54;;;;;;;9.25;1.73;;;22.20;78.10;;;;;;5053072;28;20021;-78
2022/08/22 06:52:23;;;;;;;10.80;2.20;;;22.20;77.90;;;;;;5052962;28;20044;-78
2022/08/22 06:54:59;;;;;;;3.90;1.30;;;22.00;78.10;;;;;;5053142;28;20021;-78
2022/08/22 06:57:24;;;;;;;5.82;1.30;;;22.00;78.40;;;;;;5053118;28;20044;-78
2022/08/22 06:59:52;;;;;;;5.35;1.40;;;22.00;78.90;;;;;;5052544;28;20480;-78
2022/08/22 07:02:27;;;;;;;6.03;1.27;;;22.10;78.40;;;;;;5053174;28;20409;-78
2022/08/22 07:04:52;;;;;;;3.25;1.20;;;22.10;78.40;;;;;;5052964;28;20095;-78
2022/08/22 07:07:22;;;;;;;3.95;1.00;;;22.00;78.70;;;;;;5052848;28;20021;-78
2022/08/22 07:09:54;;;;;;;3.17;1.00;;;22.00;78.50;;;;;;5053019;28;20123;-78
2022/08/22 07:12:25;;;;;;;2.97;1.00;;;22.10;78.70;;;;;;5053058;28;20029;-78
2022/08/22 07:14:53;;;;;;;5.70;0.98;;;22.10;78.60;;;;;;5052996;28;20325;-78
2022/08/22 07:17:24;;;;;;;4.70;1.10;;;22.20;78.40;;;;;;5053159;28;20078;-78
2022/08/22 07:20:10;;;;;;;5.40;1.13;;;22.20;78.40;;;;;;5052524;28;20365;-78
2022/08/22 07:22:36;;;;;;;7.35;1.50;;;22.30;78.10;;;;;;5052793;28;20096;-78
2022/08/22 07:25:10;;;;;;;4.72;1.20;;;22.30;77.60;;;;;;5052533;28;20045;-78
2022/08/22 07:27:41;;;;;;;7.25;1.40;;;22.40;77.70;;;;;;5052948;28;20103;-78
2022/08/22 07:30:11;;;;;;;10.45;1.60;;;22.40;77.60;;;;;;5052707;28;20021;-78
2022/08/22 07:33:00;;;;;;;5.68;1.05;;;22.30;77.20;;;;;;5054497;28;20025;-78
2022/08/22 07:35:49;;;;;;;6.80;1.38;;;22.30;77.50;;;;;;5056653;28;20029;-78
2022/08/22 07:38:28;;;;;;;6.18;1.35;;;22.30;77.50;;;;;;5056029;28;20029;-78
2022/08/22 07:41:19;;;;;;;6.00;1.40;;;22.30;77.20;;;;;;5056176;28;20040;-78
2022/08/22 07:43:58;;;;;;;4.57;0.93;;;22.40;77.50;;;;;;5056597;28;20437;-78
2022/08/22 07:46:51;;;;;;;5.97;1.48;;;22.30;77.50;;;;;;5056356;28;20028;-78
2022/08/22 07:49:24;;;;;;;4.95;1.05;;;22.30;77.70;;;;;;5056022;28;20032;-78
2022/08/22 07:52:07;;;;;;;7.53;1.10;;;22.20;77.80;;;;;;5056327;28;20033;-78
2022/08/22 07:54:50;;;;;;;;;;;22.30;78.10;;;;;;5056692;28;20036;-78
2022/08/22 07:57:21;;;;;;;4.55;1.17;;;22.30;78.20;;;;;;5055937;28;19913;-78
2022/08/22 07:59:51;;;;;;;5.22;1.55;;;22.30;78.30;;;;;;5055772;28;20040;-78
2022/08/22 08:02:18;;;;;;;6.93;1.75;;;22.20;78.20;;;;;;5056115;28;20032;-78
2022/08/22 08:04:47;;;;;;;7.35;1.40;;;22.30;78.40;;;;;;5055611;28;20473;-78
2022/08/22 08:07:15;;;;;;;5.85;1.17;;;22.30;78.80;;;;;;5055632;28;20086;-78
2022/08/22 08:09:48;;;;;;;6.00;1.55;;;22.30;78.30;;;;;;5055761;28;20029;-78
2022/08/22 08:12:17;;;;;;;3.15;0.82;;;22.40;78.00;;;;;;5055980;28;20100;-78
2022/08/22 08:14:44;;;;;;;6.53;1.98;;;22.50;78.10;;;;;;5055921;28;20066;-78
2022/08/22 08:17:23;;;;;;;6.50;1.27;;;22.50;78.10;;;;;;5055409;28;20472;-78
2022/08/22 08:19:50;;;;;;;7.40;1.30;;;22.50;77.60;;;;;;5055768;28;20032;-78
2022/08/22 08:22:24;;;;;;;6.20;1.45;;;22.50;79.10;;;;;;5055642;28;20484;-78
2022/08/22 08:24:54;;;;;;;5.93;1.33;;;22.70;78.70;;;;;;5055096;28;20083;-78
2022/08/22 08:30:15;;;;;;;8.63;1.90;;;23.20;77.30;;;;;;5055510;28;20119;-78
2022/08/22 08:32:44;;;;;;;7.80;1.50;;;23.30;77.80;;;;;;5055624;28;20028;-78
2022/08/22 08:35:32;;;;;;;6.53;1.52;;;23.50;75.60;;;;;;5055291;28;20365;-78
2022/08/22 08:38:07;;;;;;;9.38;1.95;;;23.80;75.50;;;;;;5055286;28;20384;-78
2022/08/22 08:40:33;;;;;;;10.13;1.88;;;23.90;74.60;;;;;;5055242;28;20533;-79
2022/08/22 08:43:26;;;;;;;10.70;1.80;;;23.80;74.20;;;;;;5055334;28;20029;-78
2022/08/22 08:46:14;;;;;;;8.70;1.73;;;23.90;74.80;;;;;;5055299;28;20037;-78
2022/08/22 08:48:56;;;;;;;4.55;0.90;;;24.10;73.70;;;;;;5054967;28;20025;-78
2022/08/22 08:51:47;;;;;;;7.68;1.55;;;24.10;73.30;;;;;;5055027;28;20033;-78
2022/08/22 08:54:36;;;;;;;6.28;1.10;;;24.10;73.60;;;;;;5055154;28;20032;-78
2022/08/22 08:57:26;;;;;;;6.38;1.77;;;24.10;73.80;;;;;;5054935;28;20032;-78
2022/08/22 09:00:30;;;;;;;7.68;1.27;;;24.10;73.10;;;;;;5054828;28;20037;-78
2022/08/22 09:03:08;;;;;;;4.18;1.13;;;24.00;73.00;;;;;;5044335;28;20044;-78
2022/08/22 09:05:42;;;;;;;5.82;1.25;;;23.90;73.40;;;;;;5054621;28;20033;-78
2022/08/22 09:08:20;;;;;;;4.65;1.00;;;23.90;73.60;;;;;;5054706;28;20538;-78
2022/08/22 09:11:19;;;;;;;5.40;1.33;;;23.90;73.70;;;;;;5054897;28;20112;-78
2022/08/22 09:14:21;;;;;;;9.13;1.88;;;23.90;73.40;;;;;;5054833;28;20143;-78
2022/08/22 09:17:24;;;;;;;6.40;1.95;;;23.90;74.30;;;;;;5054479;28;20481;-79
2022/08/22 09:19:49;;;;;;;;;;;24.00;74.90;;;;;;5054618;28;20032;-78
2022/08/22 09:23:02;;;;;;;6.57;1.55;;;24.10;73.70;;;;;;5054294;28;19916;-78
2022/08/22 09:25:34;;;;;;;6.25;2.00;;;24.10;73.60;;;;;;5032024;28;20093;-79
2022/08/22 09:28:26;;;;;;;6.53;1.20;;;24.40;74.20;;;;;;5050643;28;20029;-78
2022/08/22 09:31:01;;;;;;;11.68;1.70;;;24.50;73.40;;;;;;5054383;28;20074;-78
2022/08/22 09:33:51;;;;;;;5.15;1.50;;;24.80;72.50;;;;;;5054226;28;20036;-78
2022/08/22 09:36:34;;;;;;;5.80;1.38;;;24.90;72.40;;;;;;5054434;28;20021;-78
2022/08/22 09:39:21;;;;;;;8.02;1.50;;;25.00;71.20;;;;;;5053898;28;20025;-78
2022/08/22 09:42:09;;;;;;;12.32;1.77;;;25.20;70.70;;;;;;5053823;28;20117;-78
2022/08/22 09:45:07;;;;;;;4.50;1.30;;;25.30;68.40;;;;;;5054176;28;20029;-79
2022/08/22 09:47:38;;;;;;;8.82;1.80;;;25.20;67.60;;;;;;5041338;28;20029;-79
2022/08/22 09:50:20;;;;;;;7.20;1.30;;;25.30;67.80;;;;;;5053755;28;20029;-78
2022/08/22 09:53:20;;;;;;;5.70;1.33;;;25.20;68.80;;;;;;5054142;28;20110;-79
2022/08/22 09:56:15;;;;;;;6.10;1.10;;;25.40;68.40;;;;;;5052872;28;20021;-79
2022/08/22 09:59:14;;;;;;;6.30;1.88;;;25.70;66.50;;;;;;5052916;28;20060;-79
2022/08/22 10:01:54;;;;;;;4.72;1.02;;;25.80;63.70;;;;;;5053494;28;20420;-78
2022/08/22 10:04:29;;;;;;;4.13;1.17;;;25.90;63.80;;;;;;5053305;28;20021;-79
2022/08/22 10:07:19;;;;;;;5.68;1.00;;;26.00;63.30;;;;;;5053547;28;20031;-79
2022/08/22 10:10:02;;;;;;;6.88;1.55;;;26.10;63.00;;;;;;5053666;28;20033;-79
2022/08/22 10:12:41;;;;;;;6.82;1.27;;;26.20;63.60;;;;;;5053425;28;20104;-79
2022/08/22 10:15:22;;;;;;;6.18;1.10;;;26.30;63.10;;;;;;5053384;28;20032;-79
2022/08/22 10:18:15;;;;;;;7.38;1.33;;;26.30;63.00;;;;;;5053679;28;20142;-79
2022/08/22 10:21:01;;;;;;;12.55;1.98;;;26.30;63.10;;;;;;5053285;28;20033;-79
2022/08/22 10:23:35;;;;;;;6.65;1.10;;;26.30;62.90;;;;;;5053319;28;20044;-79
2022/08/22 10:26:42;;;;;;;6.57;1.55;;;26.40;62.30;;;;;;5053399;28;20110;-79
2022/08/22 10:29:48;;;;;;;5.53;1.00;;;26.30;61.50;;;;;;5042443;28;20033;-79
2022/08/22 10:32:50;;;;;;;7.10;1.35;;;26.30;60.40;;;;;;5053165;28;20480;-79
2022/08/22 10:35:25;;;;;;;7.50;1.42;;;26.10;59.20;;;;;;5053040;28;20448;-79
2022/08/22 10:38:10;;;;;;;5.55;1.42;;;26.10;59.30;;;;;;5053039;28;20354;-79
2022/08/22 10:40:54;;;;;;;5.57;1.40;;;26.10;59.80;;;;;;5053094;28;20082;-79
2022/08/22 10:43:49;;;;;;;5.28;1.25;;;26.20;60.50;;;;;;5053188;28;20029;-79
2022/08/22 10:46:22;;;;;;;5.93;1.17;;;26.20;60.10;;;;;;5044343;28;20435;-79
2022/08/22 10:48:52;;;;;;;8.60;1.50;;;26.30;60.00;;;;;;5053295;28;20021;-79
2022/08/22 10:51:43;;;;;;;5.50;1.50;;;26.20;60.00;;;;;;5053242;28;20435;-79
2022/08/22 10:54:17;;;;;;;5.95;1.65;;;26.20;59.90;;;;;;5053440;28;20035;-79
2022/08/22 10:57:02;;;;;;;5.32;1.25;;;26.20;58.50;;;;;;5053076;28;20111;-79
2022/08/22 10:59:50;;;;;;;9.35;1.63;;;26.10;59.50;;;;;;5052628;28;20494;-79
2022/08/22 11:02:37;;;;;;;8.27;1.75;;;26.00;59.30;;;;;;5052854;28;20041;-79
2022/08/22 11:05:41;;;;;;;7.50;2.15;;;26.10;59.30;;;;;;5052910;28;20495;-79
2022/08/22 11:08:11;;;;;;;6.40;1.80;;;26.00;59.80;;;;;;5033484;28;20152;-79
2022/08/22 11:11:05;;;;;;;5.28;1.40;;;26.00;60.50;;;;;;5053048;28;20106;-79
2022/08/22 11:13:58;;;;;;;7.72;1.45;;;25.90;59.70;;;;;;5056780;28;20029;-79
2022/08/22 11:16:40;;;;;;;5.07;1.65;;;25.90;60.20;;;;;;5056832;28;20029;-79
2022/08/22 11:19:14;;;;;;;7.60;1.30;;;26.00;60.70;;;;;;5056486;28;20545;-79
2022/08/22 11:21:44;;;;;;;5.93;1.38;;;25.90;60.70;;;;;;5056803;28;20388;-79
2022/08/22 11:24:35;;;;;;;5.07;1.42;;;26.00;60.10;;;;;;5056673;28;20099;-79
2022/08/22 11:27:45;;;;;;;7.25;1.33;;;26.10;58.90;;;;;;5056397;28;20052;-79
2022/08/22 11:30:22;;;;;;;6.97;0.93;;;26.30;58.30;;;;;;5046228;28;20044;-79
2022/08/22 11:32:58;;;;;;;5.82;1.60;;;26.40;58.90;;;;;;5056357;28;20040;-79
2022/08/22 11:35:38;;;;;;;5.80;1.67;;;26.60;58.90;;;;;;5056265;28;20469;-79
2022/08/22 11:38:45;;;;;;;5.93;1.02;;;26.90;57.60;;;;;;5056652;28;20036;-79
2022/08/22 11:41:15;;;;;;;4.10;0.80;;;27.00;56.90;;;;;;5052937;28;20103;-79
2022/08/22 11:44:00;;;;;;;4.15;1.20;;;26.90;55.40;;;;;;5056128;28;20013;-79
2022/08/22 11:46:35;;;;;;;3.38;0.80;;;26.90;55.50;;;;;;5056127;28;20028;-79
2022/08/22 11:49:31;;;;;;;4.80;1.02;;;27.10;55.80;;;;;;5056228;28;20435;-79
2022/08/22 11:52:06;;;;;;;6.68;0.98;;;27.30;54.80;;;;;;5056124;28;20032;-79
2022/08/22 11:54:40;;;;;;;4.35;1.25;;;27.50;54.00;;;;;;5055872;28;20017;-79
2022/08/22 11:57:19;;;;;;;5.85;1.20;;;27.80;54.60;;;;;;5055656;28;20071;-79
2022/08/22 11:59:44;;;;;;;4.85;1.00;;;28.00;54.00;;;;;;5056005;28;20043;-80
2022/08/22 12:02:29;;;;;;;6.50;1.15;;;28.10;53.80;;;;;;5056003;28;20032;-79
2022/08/22 12:05:02;;;;;;;4.20;1.20;;;28.20;53.40;;;;;;5056142;28;20021;-79
2022/08/22 12:07:30;;;;;;;9.77;1.33;;;28.40;52.80;;;;;;5055610;28;20108;-79
2022/08/22 12:10:18;;;;;;;5.03;0.93;;;28.40;52.70;;;;;;5055834;28;20039;-79
2022/08/22 12:13:04;;;;;;;3.38;0.90;;;28.10;53.00;;;;;;5055533;28;20056;-79
2022/08/22 12:15:58;;;;;;;5.97;1.30;;;27.90;53.70;;;;;;5055400;28;20473;-79
2022/08/22 12:18:42;;;;;;;6.60;1.20;;;27.90;54.10;;;;;;5054790;28;20061;-79
2022/08/22 12:21:26;;;;;;;4.28;0.90;;;27.80;54.60;;;;;;5055840;28;20040;-79
2022/08/22 12:24:03;;;;;;;4.18;1.10;;;27.80;54.70;;;;;;5055263;28;20574;-78
2022/08/22 12:26:51;;;;;;;2.75;0.85;;;27.70;54.00;;;;;;5055292;28;20065;-79
2022/08/22 12:29:47;;;;;;;5.18;1.13;;;27.60;54.80;;;;;;5055493;28;20104;-79
2022/08/22 12:32:27;;;;;;;6.07;1.10;;;27.60;54.50;;;;;;5055841;28;20096;-79
2022/08/22 12:35:29;;;;;;;4.68;0.80;;;27.40;54.90;;;;;;5055206;28;20032;-79
2022/08/22 12:38:23;;;;;;;3.60;0.98;;;27.40;55.60;;;;;;5055497;28;20020;-79
2022/08/22 12:41:26;;;;;;;6.82;1.20;;;27.50;55.50;;;;;;5054957;28;20036;-79
2022/08/22 12:44:03;;;;;;;7.30;1.30;;;27.60;54.70;;;;;;5055257;28;20388;-79
2022/08/22 12:47:20;;;;;;;5.40;1.30;;;27.60;54.60;;;;;;5055041;28;20142;-79
2022/08/22 12:50:11;;;;;;;6.05;1.65;;;27.60;55.10;;;;;;5045927;28;20369;-79
2022/08/22 12:53:16;;;;;;;6.22;1.50;;;27.60;55.10;;;;;;5055080;28;20490;-79
2022/08/22 12:55:57;;;;;;;5.63;1.23;;;27.70;55.30;;;;;;5054765;28;20029;-79
2022/08/22 12:58:25;;;;;;;6.20;1.30;;;27.70;54.90;;;;;;5054556;28;20488;-79
2022/08/22 13:00:51;;;;;;;6.85;1.23;;;27.80;54.80;;;;;;5054788;28;20083;-79
2022/08/22 13:03:43;;;;;;;4.93;1.05;;;27.80;54.20;;;;;;5054632;28;20025;-79
2022/08/22 13:06:33;;;;;;;6.18;1.30;;;27.80;54.80;;;;;;5054928;28;20432;-79
2022/08/22 13:09:00;;;;;;;4.35;1.25;;;27.80;54.10;;;;;;5054785;28;20032;-79
2022/08/22 13:11:29;;;;;;;4.00;0.82;;;27.70;54.40;;;;;;5054737;28;20362;-79
2022/08/22 13:13:58;;;;;;;4.88;1.23;;;27.80;54.50;;;;;;5054564;28;20036;-79
2022/08/22 13:16:37;;;;;;;5.28;1.00;;;27.90;54.00;;;;;;5054693;28;20024;-79
2022/08/22 13:19:10;;;;;;;5.93;1.30;;;27.90;53.40;;;;;;5054539;28;20037;-79
2022/08/22 13:21:42;;;;;;;6.28;1.10;;;27.90;53.40;;;;;;5054552;28;20131;-79
2022/08/22 13:24:13;;;;;;;8.23;1.30;;;27.90;53.50;;;;;;5054472;28;20059;-79
2022/08/22 13:26:47;;;;;;;3.42;0.88;;;27.90;53.50;;;;;;5053857;28;20464;-79
2022/08/22 13:29:30;;;;;;;6.60;1.00;;;28.00;53.10;;;;;;5054609;28;20025;-79
2022/08/22 13:32:00;;;;;;;4.65;0.70;;;28.00;52.90;;;;;;5054291;28;20025;-79
2022/08/22 13:34:31;;;;;;;4.55;1.17;;;28.00;52.00;;;;;;5054303;28;20095;-79
2022/08/22 13:37:00;;;;;;;10.13;1.23;;;28.00;52.30;;;;;;5054184;28;20021;-79
2022/08/22 13:39:35;;;;;;;6.28;1.15;;;28.00;51.80;;;;;;5054254;28;20044;-79
2022/08/22 13:42:04;;;;;;;2.53;0.60;;;28.00;51.60;;;;;;5054045;28;20037;-79
2022/08/22 13:44:38;;;;;;;2.33;0.68;;;28.00;52.10;;;;;;5054246;28;20044;-79
2022/08/22 13:47:08;;;;;;;4.22;1.10;;;28.00;52.60;;;;;;5053904;28;20029;-79
2022/08/22 13:49:52;;;;;;;4.38;1.00;;;28.00;51.40;;;;;;5054097;28;20032;-79
2022/08/22 13:52:24;;;;;;;3.60;0.75;;;28.10;51.80;;;;;;5053804;28;20033;-79
2022/08/22 13:55:25;;;;;;;2.85;0.80;;;28.20;51.90;;;;;;5053995;28;20071;-79
2022/08/22 13:58:17;;;;;;;6.20;1.00;;;28.20;51.90;;;;;;5053392;28;20558;-79
2022/08/22 14:01:01;;;;;;;6.07;1.65;;;28.10;50.10;;;;;;5053844;28;20412;-78
2022/08/22 14:04:20;;;;;;;3.47;0.98;;;28.00;50.50;;;;;;5053854;28;20104;-78
2022/08/22 14:07:12;;;;;;;4.32;1.08;;;27.90;50.60;;;;;;5049293;28;20393;-78